createdAt,value
2023-05-20T00:02:05.931Z,1.30
2023-05-20T00:07:08.622Z,1.27
2023-05-20T00:12:11.345Z,1.77
2023-05-20T00:17:14.155Z,1.50
2023-05-20T00:22:16.820Z,1.10
2023-05-20T00:27:19.621Z,1.10
2023-05-20T00:32:22.345Z,1.33
2023-05-20T00:37:25.420Z,1.20
2023-05-20T00:42:29.179Z,1.50
2023-05-20T00:47:34.515Z,1.27
2023-05-20T00:52:37.784Z,1.42
2023-05-20T00:57:41.029Z,1.38
2023-05-20T01:02:44.092Z,1.10
2023-05-20T01:07:47.149Z,1.10
2023-05-20T01:12:54.846Z,1.38
2023-05-20T01:18:06.281Z,1.10
2023-05-20T01:23:09.197Z,1.27
2023-05-20T01:28:18.155Z,1.20
2023-05-20T01:33:24.616Z,1.60
2023-05-20T01:38:27.587Z,1.20
2023-05-20T01:43:30.821Z,1.48
2023-05-20T01:48:33.645Z,1.42
2023-05-20T01:53:36.528Z,1.40
2023-05-20T01:58:39.411Z,1.00
2023-05-20T02:03:42.273Z,1.20
2023-05-20T02:08:44.979Z,1.08
2023-05-20T02:13:47.946Z,1.52
2023-05-20T02:18:53.249Z,1.02
2023-05-20T02:23:56.146Z,1.10
2023-05-20T02:28:58.947Z,1.38
2023-05-20T02:34:01.846Z,0.80
2023-05-20T02:39:04.687Z,0.90
2023-05-20T02:44:07.498Z,0.80
2023-05-20T02:49:10.394Z,1.13
2023-05-20T02:54:13.120Z,0.80
2023-05-20T02:59:16.214Z,1.05
2023-05-20T03:04:19.425Z,0.90
2023-05-20T03:09:22.161Z,0.90
2023-05-20T03:14:24.947Z,0.85
2023-05-20T03:19:27.759Z,0.95
2023-05-20T03:24:30.628Z,0.82
2023-05-20T03:29:33.781Z,0.73
2023-05-20T03:34:37.019Z,0.82
2023-05-20T03:39:41.514Z,0.90
2023-05-20T03:44:44.622Z,0.75
2023-05-20T03:49:47.462Z,1.20
2023-05-20T03:54:50.319Z,0.93
2023-05-20T03:59:53.104Z,0.93
2023-05-20T04:04:57.890Z,0.98
2023-05-20T04:10:00.908Z,0.90
2023-05-20T04:15:07.318Z,1.00
2023-05-20T04:20:22.157Z,0.85
2023-05-20T04:25:27.609Z,0.95
2023-05-20T04:30:33.616Z,1.00
2023-05-20T04:35:38.372Z,1.30
2023-05-20T04:40:42.475Z,1.00
2023-05-20T04:45:45.997Z,1.00
2023-05-20T04:50:50.281Z,0.93
2023-05-20T04:55:57.189Z,1.02
2023-05-20T05:01:01.642Z,0.98
2023-05-20T05:06:04.826Z,1.00
2023-05-20T05:11:08.009Z,0.80
2023-05-20T05:16:10.969Z,1.23
2023-05-20T05:21:13.953Z,1.20
2023-05-20T05:26:17.751Z,1.08
2023-05-20T05:31:20.936Z,1.00
2023-05-20T05:36:26.103Z,1.05
2023-05-20T05:41:29.044Z,1.17
2023-05-20T05:46:33.830Z,1.30
2023-05-20T05:51:38.779Z,1.10
2023-05-20T05:56:42.192Z,1.02
2023-05-20T06:01:45.113Z,1.20
2023-05-20T06:06:48.638Z,1.02
2023-05-20T06:11:52.232Z,1.00
2023-05-20T06:16:55.034Z,1.02
2023-05-20T06:22:00.846Z,0.70
2023-05-20T06:27:04.310Z,1.05
2023-05-20T06:32:07.476Z,0.80
2023-05-20T06:37:11.542Z,0.98
2023-05-20T06:42:14.331Z,1.08
2023-05-20T06:47:23.599Z,1.00
2023-05-20T06:52:28.076Z,1.27
2023-05-20T06:57:31.570Z,0.73
2023-05-20T07:02:34.695Z,1.05
2023-05-20T07:07:37.673Z,0.82
2023-05-20T07:12:40.600Z,1.13
2023-05-20T07:17:43.485Z,0.90
2023-05-20T07:22:47.877Z,1.30
2023-05-20T07:27:56.937Z,0.90
2023-05-20T07:32:59.760Z,1.20
2023-05-20T07:38:03.011Z,1.33
2023-05-20T07:43:07.844Z,1.20
2023-05-20T07:48:11.158Z,1.00
2023-05-20T07:53:14.156Z,1.25
2023-05-20T07:58:17.080Z,1.45
2023-05-20T08:03:22.567Z,1.25
2023-05-20T08:08:34.842Z,1.10
2023-05-20T08:13:44.155Z,1.35
2023-05-20T08:18:48.019Z,0.88
2023-05-20T08:23:56.118Z,1.92
2023-05-20T08:28:59.021Z,1.35
2023-05-20T08:34:01.900Z,1.10
2023-05-20T08:39:04.810Z,1.15
2023-05-20T08:44:10.752Z,1.10
2023-05-20T08:49:14.984Z,1.13
2023-05-20T08:54:20.591Z,1.38
2023-05-20T08:59:23.595Z,1.35
2023-05-20T09:04:26.250Z,1.40
2023-05-20T09:09:30.336Z,1.23
2023-05-20T09:14:33.009Z,1.25
2023-05-20T09:19:35.985Z,1.20
2023-05-20T09:24:38.783Z,1.30
2023-05-20T09:29:41.770Z,1.70
2023-05-20T09:34:47.681Z,1.48
2023-05-20T09:40:00.556Z,1.10
2023-05-20T09:45:04.576Z,1.30
2023-05-20T09:50:09.417Z,1.30
2023-05-20T09:55:12.244Z,1.45
2023-05-20T10:00:17.806Z,1.40
2023-05-20T10:05:24.438Z,1.38
2023-05-20T10:10:46.190Z,1.15
2023-05-20T10:16:02.057Z,1.40
2023-05-20T10:21:16.722Z,1.60
2023-05-20T10:26:20.084Z,1.60
2023-05-20T10:31:23.732Z,1.27
2023-05-20T10:36:32.029Z,1.27
2023-05-20T10:41:35.015Z,1.45
2023-05-20T10:46:54.004Z,1.65
2023-05-20T10:52:00.866Z,1.23
2023-05-20T10:57:10.552Z,1.42
2023-05-20T11:02:16.174Z,1.55
2023-05-20T11:07:26.752Z,1.88
2023-05-20T11:12:29.590Z,1.52
2023-05-20T11:17:32.349Z,1.65
2023-05-20T11:22:35.105Z,1.45
2023-05-20T11:27:41.484Z,1.40
2023-05-20T11:33:04.621Z,1.50
2023-05-20T11:38:10.570Z,1.45
2023-05-20T11:43:15.723Z,1.67
2023-05-20T11:48:19.971Z,1.60
2023-05-20T11:53:24.461Z,1.92
2023-05-20T11:58:29.830Z,2.00
2023-05-20T12:03:33.169Z,1.70
2023-05-20T12:08:36.475Z,1.85
2023-05-20T12:13:40.370Z,1.73
2023-05-20T12:18:43.173Z,1.80
2023-05-20T12:23:46.059Z,1.42
2023-05-20T12:28:48.769Z,1.80
2023-05-20T12:33:51.585Z,2.00
2023-05-20T12:38:54.459Z,1.67
2023-05-20T12:43:57.466Z,1.60
2023-05-20T12:49:00.261Z,1.77
2023-05-20T12:54:02.977Z,2.38
2023-05-20T12:59:05.955Z,1.60
2023-05-20T13:04:09.165Z,1.50
2023-05-20T13:09:12.714Z,1.55
2023-05-20T13:14:16.956Z,1.77
2023-05-20T13:19:23.415Z,1.90
2023-05-20T13:24:26.216Z,2.22
2023-05-20T13:29:29.256Z,2.58
2023-05-20T13:34:32.127Z,2.72
2023-05-20T13:39:34.919Z,3.00
2023-05-20T13:44:37.679Z,2.30
2023-05-20T13:49:40.389Z,1.85
2023-05-20T13:54:44.828Z,1.90
2023-05-20T13:59:47.627Z,1.90
2023-05-20T14:04:50.403Z,2.28
2023-05-20T14:09:53.191Z,2.63
2023-05-20T14:14:56.558Z,3.65
2023-05-20T14:20:00.799Z,2.80
2023-05-20T14:25:04.159Z,3.13
2023-05-20T14:30:07.686Z,2.90
2023-05-20T14:35:10.567Z,3.00
2023-05-20T14:40:13.678Z,2.30
2023-05-20T14:45:16.551Z,2.10
2023-05-20T14:50:19.257Z,2.35
2023-05-20T14:55:21.911Z,2.45
2023-05-20T15:00:24.827Z,2.95
2023-05-20T15:05:27.548Z,2.58
2023-05-20T15:10:30.271Z,2.47
2023-05-20T15:15:33.909Z,2.00
2023-05-20T15:20:36.856Z,2.35
2023-05-20T15:25:39.542Z,3.30
2023-05-20T15:30:42.221Z,2.45
2023-05-20T15:35:45.128Z,2.53
2023-05-20T15:40:50.511Z,2.45
2023-05-20T15:45:54.348Z,1.60
2023-05-20T15:50:57.155Z,1.60
2023-05-20T15:56:00.154Z,1.73
2023-05-20T16:01:02.876Z,2.42
2023-05-20T16:06:05.729Z,1.80
2023-05-20T16:11:08.616Z,2.17
2023-05-20T16:16:13.665Z,2.78
2023-05-20T16:21:16.675Z,2.50
2023-05-20T16:26:19.625Z,2.40
2023-05-20T16:31:22.426Z,3.20
2023-05-20T16:36:26.065Z,2.70
2023-05-20T16:41:28.855Z,2.08
2023-05-20T16:46:31.600Z,2.22
2023-05-20T16:51:34.409Z,2.65
2023-05-20T16:56:37.254Z,2.33
2023-05-20T17:01:40.160Z,2.38
2023-05-20T17:06:42.905Z,2.40
2023-05-20T17:11:45.615Z,2.10
2023-05-20T17:16:48.295Z,2.88
2023-05-20T17:21:51.133Z,1.83
2023-05-20T17:26:53.770Z,2.30
2023-05-20T17:31:56.650Z,2.00
2023-05-20T17:36:59.418Z,2.33
2023-05-20T17:42:03.033Z,2.50
2023-05-20T17:47:05.746Z,2.47
2023-05-20T17:52:08.536Z,2.47
2023-05-20T17:57:11.298Z,2.05
2023-05-20T18:02:14.104Z,2.50
2023-05-20T18:07:17.887Z,3.55
2023-05-20T18:12:20.687Z,2.78
2023-05-20T18:17:23.458Z,2.63
2023-05-20T18:22:27.173Z,3.28
2023-05-20T18:27:29.867Z,2.92
2023-05-20T18:32:32.614Z,3.03
2023-05-20T18:37:35.717Z,3.42
2023-05-20T18:42:38.563Z,3.55
2023-05-20T18:47:41.815Z,3.78
2023-05-20T18:52:44.575Z,4.32
2023-05-20T18:57:47.528Z,3.25
2023-05-20T19:02:50.265Z,4.18
2023-05-20T19:07:53.060Z,4.00
2023-05-20T19:12:56.242Z,3.63
2023-05-20T19:17:59.109Z,3.72
2023-05-20T19:23:02.027Z,3.70
2023-05-20T19:28:05.075Z,4.00
2023-05-20T19:33:07.815Z,4.03
2023-05-20T19:38:10.917Z,4.68
2023-05-20T19:43:13.684Z,4.97
2023-05-20T19:48:16.866Z,5.00
2023-05-20T19:53:21.027Z,4.85
2023-05-20T19:58:23.837Z,4.88
2023-05-20T20:03:26.578Z,5.05
2023-05-20T20:08:29.271Z,6.05
2023-05-20T20:13:31.931Z,7.55
2023-05-20T20:18:35.332Z,6.30
2023-05-20T20:23:38.094Z,6.28
2023-05-20T20:28:40.779Z,6.30
2023-05-20T20:33:44.097Z,6.22
2023-05-20T20:38:47.276Z,6.65
2023-05-20T20:43:50.705Z,6.55
2023-05-20T20:48:54.389Z,5.82
2023-05-20T20:53:57.171Z,6.65
2023-05-20T20:59:00.421Z,6.50
2023-05-20T21:04:04.618Z,6.43
2023-05-20T21:09:07.572Z,6.20
2023-05-20T21:14:10.868Z,6.70
2023-05-20T21:19:13.456Z,6.78
2023-05-20T21:24:16.099Z,5.30
2023-05-20T21:29:18.657Z,6.30
2023-05-20T21:34:21.268Z,6.13
2023-05-20T21:39:23.830Z,5.85
2023-05-20T21:44:26.616Z,5.13
2023-05-20T21:49:29.258Z,5.43
2023-05-20T21:54:31.828Z,5.03
2023-05-20T21:59:34.425Z,5.47
2023-05-20T22:04:37.403Z,5.22
2023-05-20T22:09:40.005Z,5.45
2023-05-20T22:14:42.629Z,5.65
2023-05-20T22:19:45.278Z,5.28
2023-05-20T22:24:47.859Z,5.80
2023-05-20T22:29:50.990Z,5.60
2023-05-20T22:34:53.799Z,5.78
2023-05-20T22:39:56.781Z,5.32
2023-05-20T22:44:59.585Z,6.28
2023-05-20T22:50:03.264Z,5.78
2023-05-20T22:55:09.084Z,6.60
2023-05-20T23:00:14.215Z,5.43
2023-05-20T23:05:17.407Z,5.88
2023-05-20T23:10:20.464Z,5.95
2023-05-20T23:15:24.427Z,6.18
2023-05-20T23:20:29.676Z,6.47
2023-05-20T23:25:32.619Z,6.20
2023-05-20T23:30:36.220Z,6.65
2023-05-20T23:35:38.941Z,6.53
2023-05-20T23:40:41.601Z,7.15
2023-05-20T23:45:44.294Z,6.90
2023-05-20T23:50:47.015Z,6.72
2023-05-20T23:55:49.831Z,6.55
